Time;durP1;ratioP1;P1;durP2;ratioP2;P2;SDS_P1;SDS_P2;PMS_P1;PMS_P2;Temp;Humidity;BMP_temperature;BMP_pressure;BME280_temperature;BME280_humidity;BME280_pressure;Samples;Min_cycle;Max_cycle;Signal;HPM_P1;HPM_P2
2023/02/16 00:01:01;;;;;;;18.38;13.10;;;4.00;99.90;;;;;;5053998;28;20193;-61
2023/02/16 00:03:28;;;;;;;22.45;15.70;;;3.90;99.90;;;;;;5053620;28;20204;-61
2023/02/16 00:05:56;;;;;;;20.83;14.10;;;3.90;99.90;;;;;;5053687;28;20224;-60
2023/02/16 00:08:23;;;;;;;22.00;15.45;;;3.90;99.90;;;;;;5053236;28;20583;-61
2023/02/16 00:13:51;;;;;;;22.48;12.93;;;3.90;99.90;;;;;;5054030;28;20223;-61
2023/02/16 00:16:20;;;;;;;17.63;13.07;;;3.90;99.90;;;;;;5053528;28;20327;-61
2023/02/16 00:18:48;;;;;;;23.27;13.90;;;3.90;99.90;;;;;;5053542;28;20207;-61
2023/02/16 00:21:16;;;;;;;24.45;15.35;;;3.90;99.90;;;;;;5053454;28;20685;-61
2023/02/16 00:23:43;;;;;;;21.45;14.15;;;3.90;99.90;;;;;;5053412;28;20209;-61
2023/02/16 00:26:15;;;;;;;22.90;14.35;;;3.90;99.90;;;;;;5053953;28;20260;-61
2023/02/16 00:28:43;;;;;;;22.63;15.02;;;3.90;99.90;;;;;;5057623;28;20231;-61
2023/02/16 00:31:17;;;;;;;25.52;15.05;;;3.90;99.90;;;;;;5058035;28;20690;-63
2023/02/16 00:33:44;;;;;;;24.10;14.05;;;3.90;99.90;;;;;;5057487;28;20198;-61
2023/02/16 00:36:10;;;;;;;24.33;14.45;;;3.90;99.90;;;;;;5056808;28;20689;-59
2023/02/16 00:38:39;;;;;;;23.20;14.00;;;3.90;99.90;;;;;;5057267;28;20223;-60
2023/02/16 00:41:49;;;;;;;18.67;12.98;;;4.00;99.90;;;;;;5057363;28;20291;-60
2023/02/16 00:43:53;;;;;;;24.33;14.82;;;4.00;99.90;;;;;;5056862;28;20215;-60
2023/02/16 00:46:21;;;;;;;25.33;16.48;;;4.10;99.90;;;;;;5056291;28;20610;-59
2023/02/16 00:48:47;;;;;;;25.10;15.18;;;4.10;99.90;;;;;;5057719;28;20201;-61
2023/02/16 00:51:14;;;;;;;20.00;14.10;;;4.20;99.90;;;;;;5057272;28;20206;-61
2023/02/16 00:53:42;;;;;;;22.23;14.40;;;4.20;99.90;;;;;;5056892;28;20727;-59
2023/02/16 00:56:13;;;;;;;26.65;16.50;;;4.20;99.90;;;;;;5056679;28;20221;-60
2023/02/16 00:58:40;;;;;;;21.33;14.80;;;4.20;99.90;;;;;;5057240;28;20182;-60
2023/02/16 01:01:12;;;;;;;26.08;15.57;;;4.20;99.90;;;;;;5056674;28;20228;-60
2023/02/16 01:03:39;;;;;;;23.35;15.73;;;4.20;99.90;;;;;;5057411;28;20182;-60
2023/02/16 01:11:38;;;;;;;24.65;15.18;;;4.10;99.90;;;;;;5056624;28;20185;-59
2023/02/16 01:14:06;;;;;;;23.75;14.98;;;4.10;99.90;;;;;;5056413;28;20201;-60
2023/02/16 01:16:37;;;;;;;24.45;15.07;;;4.10;99.90;;;;;;5056033;28;20237;-60
2023/02/16 01:19:04;;;;;;;22.00;13.95;;;4.10;99.90;;;;;;5056528;28;20186;-61
2023/02/16 01:21:31;;;;;;;25.52;16.02;;;4.10;99.90;;;;;;5056184;28;20201;-60
2023/02/16 01:23:59;;;;;;;25.90;16.30;;;4.00;99.90;;;;;;5056119;28;20577;-60
2023/02/16 01:26:26;;;;;;;24.05;15.63;;;4.00;99.90;;;;;;5055803;28;20221;-60
2023/02/16 01:28:53;;;;;;;25.92;16.30;;;4.00;99.90;;;;;;5056097;28;20579;-60
2023/02/16 01:31:20;;;;;;;27.95;15.65;;;4.00;99.90;;;;;;5056031;28;20263;-60
2023/02/16 01:33:46;;;;;;;25.95;16.90;;;4.00;99.90;;;;;;5056077;28;20205;-60
2023/02/16 01:36:23;;;;;;;24.90;16.65;;;4.00;99.90;;;;;;5056085;28;20229;-59
2023/02/16 01:38:50;;;;;;;25.58;17.15;;;3.90;99.90;;;;;;5055825;28;20193;-60
2023/02/16 01:41:28;;;;;;;24.45;16.35;;;3.90;99.90;;;;;;5055803;28;20201;-60
2023/02/16 01:43:58;;;;;;;26.38;17.67;;;3.90;99.90;;;;;;5055794;28;20190;-60
2023/02/16 01:46:33;;;;;;;26.10;16.75;;;3.80;99.90;;;;;;5055466;28;20221;-59
2023/02/16 01:49:00;;;;;;;24.92;16.10;;;3.80;99.90;;;;;;5055546;28;20189;-59
2023/02/16 01:51:31;;;;;;;29.75;17.27;;;3.80;99.90;;;;;;5055545;28;20755;-60
2023/02/16 01:54:06;;;;;;;28.67;18.20;;;3.70;99.90;;;;;;5055365;28;20196;-60
2023/02/16 01:56:40;;;;;;;29.05;16.80;;;3.70;99.90;;;;;;5054841;28;20224;-60
2023/02/16 01:59:17;;;;;;;31.00;18.10;;;3.70;99.90;;;;;;5055622;28;20190;-60
2023/02/16 02:01:52;;;;;;;24.25;17.98;;;3.60;99.90;;;;;;5055812;28;20204;-60
2023/02/16 02:07:21;;;;;;;27.35;17.65;;;3.50;99.90;;;;;;5055789;28;20648;-59
2023/02/16 02:10:00;;;;;;;28.90;19.85;;;3.50;99.90;;;;;;5055412;28;20224;-59
2023/02/16 02:12:34;;;;;;;27.92;18.17;;;3.40;99.90;;;;;;5055280;28;20208;-60
2023/02/16 02:15:01;;;;;;;28.17;17.10;;;3.40;99.90;;;;;;5055166;28;20199;-60
2023/02/16 02:17:28;;;;;;;26.52;17.50;;;3.30;99.90;;;;;;5055047;28;20224;-60
2023/02/16 02:20:04;;;;;;;28.42;18.90;;;3.30;99.90;;;;;;5054731;28;20691;-60
2023/02/16 02:23:31;;;;;;;29.65;18.85;;;3.20;99.90;;;;;;5054962;28;20193;-60
2023/02/16 02:26:36;;;;;;;31.77;17.23;;;3.20;99.90;;;;;;5054348;28;20257;-60
2023/02/16 02:29:30;;;;;;;31.95;17.88;;;3.10;99.90;;;;;;5054748;28;20205;-59
2023/02/16 02:32:04;;;;;;;29.52;18.67;;;3.10;99.90;;;;;;5054403;28;20205;-60
2023/02/16 02:34:43;;;;;;;31.92;19.63;;;3.10;99.90;;;;;;5054294;28;20184;-60
2023/02/16 02:37:15;;;;;;;28.40;17.30;;;3.10;99.90;;;;;;5054653;28;20582;-60
2023/02/16 02:39:52;;;;;;;33.65;22.00;;;3.10;99.90;;;;;;5054607;28;20189;-59
2023/02/16 02:42:29;;;;;;;30.00;18.00;;;3.10;99.90;;;;;;5054399;28;20193;-60
2023/02/16 02:45:02;;;;;;;31.08;19.45;;;3.00;99.90;;;;;;5054464;28;20193;-60
2023/02/16 02:47:38;;;;;;;27.88;20.02;;;3.00;99.90;;;;;;5054152;28;20186;-60
2023/02/16 02:50:36;;;;;;;35.63;19.70;;;3.00;99.90;;;;;;5053346;28;20202;-60
2023/02/16 02:53:07;;;;;;;36.30;20.13;;;3.00;99.90;;;;;;5054395;28;20529;-60
2023/02/16 03:01:11;;;;;;;32.03;19.25;;;3.00;99.90;;;;;;5054437;28;20184;-60
2023/02/16 03:03:43;;;;;;;38.20;19.40;;;3.00;99.90;;;;;;5053809;28;20673;-59
2023/02/16 03:06:14;;;;;;;34.17;21.02;;;3.00;99.90;;;;;;5054086;28;20228;-60
2023/02/16 03:08:44;;;;;;;29.52;19.80;;;3.00;99.90;;;;;;5055044;28;20190;-59
2023/02/16 03:14:03;;;;;;;36.20;20.85;;;3.10;99.90;;;;;;5054414;28;20188;-60
2023/02/16 03:16:35;;;;;;;34.13;20.80;;;3.10;99.90;;;;;;5053959;28;20228;-60
2023/02/16 03:30:11;;;;;;;33.97;20.73;;;3.00;99.90;;;;;;5054242;28;20184;-59
2023/02/16 03:32:39;;;;;;;32.40;21.88;;;3.00;99.90;;;;;;5053750;28;20669;-60
2023/02/16 03:35:07;;;;;;;36.00;22.20;;;3.00;99.90;;;;;;5054279;28;20587;-60
2023/02/16 03:37:34;;;;;;;34.97;20.50;;;3.00;99.90;;;;;;5053889;28;20665;-59
2023/02/16 03:42:49;;;;;;;34.78;21.30;;;3.00;99.90;;;;;;5053742;28;20192;-59
2023/02/16 03:45:16;;;;;;;36.00;22.95;;;3.00;99.90;;;;;;5053530;28;20217;-59
2023/02/16 03:47:44;;;;;;;36.90;20.38;;;3.00;99.90;;;;;;5053503;28;20564;-59
2023/02/16 03:50:11;;;;;;;35.03;19.83;;;2.90;99.90;;;;;;5052723;28;20209;-60
2023/02/16 03:52:38;;;;;;;33.40;21.40;;;2.90;99.90;;;;;;5051267;28;20201;-59
2023/02/16 03:55:05;;;;;;;34.72;22.15;;;2.80;99.90;;;;;;5053182;28;20229;-59
2023/02/16 03:57:32;;;;;;;35.20;22.73;;;2.80;99.90;;;;;;5052801;28;20225;-59
2023/02/16 03:59:59;;;;;;;39.63;26.33;;;2.80;99.90;;;;;;5052074;28;20443;-59
2023/02/16 04:02:27;;;;;;;33.30;23.98;;;2.80;99.90;;;;;;5052668;28;20212;-58
2023/02/16 04:04:55;;;;;;;39.10;23.75;;;2.70;99.90;;;;;;5052974;28;20205;-59
2023/02/16 04:07:22;;;;;;;38.22;23.92;;;2.70;99.90;;;;;;5052844;28;20198;-59
2023/02/16 04:13:55;;;;;;;40.00;23.98;;;2.60;99.90;;;;;;5112237;28;20187;-60
2023/02/16 04:16:21;;;;;;;38.05;22.88;;;2.60;99.90;;;;;;5111582;28;20389;-60
2023/02/16 04:18:48;;;;;;;36.85;23.63;;;2.60;99.90;;;;;;5111317;28;20203;-60
2023/02/16 04:21:15;;;;;;;37.65;23.70;;;2.60;99.90;;;;;;5111136;28;20207;-60
2023/02/16 04:23:42;;;;;;;42.42;24.77;;;2.50;99.90;;;;;;5118879;22;20227;-68
2023/02/16 04:26:09;;;;;;;39.63;24.05;;;2.50;99.90;;;;;;5051242;28;20201;-68
2023/02/16 04:28:37;;;;;;;40.67;24.05;;;2.50;99.90;;;;;;5050681;28;20205;-68
2023/02/16 04:31:04;;;;;;;36.88;23.98;;;2.50;99.90;;;;;;5051132;28;20217;-68
2023/02/16 04:33:30;;;;;;;37.90;22.50;;;2.40;99.90;;;;;;5052255;28;20229;-69
2023/02/16 04:35:57;;;;;;;38.33;24.13;;;2.40;99.90;;;;;;5051293;28;20208;-68
2023/02/16 04:38:24;;;;;;;42.08;23.77;;;2.40;99.90;;;;;;5051070;28;20209;-68
2023/02/16 04:40:51;;;;;;;41.65;24.17;;;2.40;99.90;;;;;;5053153;28;20194;-68
2023/02/16 04:43:18;;;;;;;38.83;22.52;;;2.40;99.90;;;;;;5051243;28;20202;-69
2023/02/16 04:45:46;;;;;;;40.83;24.17;;;2.40;99.90;;;;;;5051721;28;20202;-69
2023/02/16 04:48:13;;;;;;;37.60;24.45;;;2.40;99.90;;;;;;5051489;28;20518;-69
2023/02/16 04:50:40;;;;;;;40.90;25.20;;;2.40;99.90;;;;;;5052541;28;20279;-69
2023/02/16 04:53:07;;;;;;;42.95;26.27;;;2.40;99.90;;;;;;5053303;28;20202;-69
2023/02/16 04:55:34;;;;;;;39.78;24.60;;;2.40;99.90;;;;;;5052934;28;20206;-68
2023/02/16 04:58:01;;;;;;;43.70;25.67;;;2.50;99.90;;;;;;5051847;28;20210;-68
2023/02/16 05:00:27;;;;;;;42.00;24.85;;;2.50;99.90;;;;;;5052633;28;20207;-68
2023/02/16 05:02:56;;;;;;;42.28;24.48;;;2.50;99.90;;;;;;5052153;28;20201;-68
2023/02/16 05:05:23;;;;;;;36.10;22.35;;;2.50;99.90;;;;;;5052477;28;20228;-68
2023/02/16 05:07:50;;;;;;;42.55;24.38;;;2.50;99.90;;;;;;5053616;28;20208;-68
2023/02/16 05:10:17;;;;;;;44.78;25.98;;;2.50;99.90;;;;;;5052500;28;20249;-68
2023/02/16 05:15:28;;;;;;;43.05;25.17;;;2.60;99.90;;;;;;5051242;28;20254;-68
2023/02/16 05:17:56;;;;;;;37.70;24.83;;;2.60;99.90;;;;;;5052737;28;20210;-68
2023/02/16 05:21:28;;;;;;;41.45;23.40;;;2.70;99.90;;;;;;5050988;28;20204;-67
2023/02/16 05:23:11;;;;;;;38.65;24.92;;;2.70;99.90;;;;;;5037991;28;20215;-69
2023/02/16 05:25:37;;;;;;;42.15;23.92;;;2.70;99.90;;;;;;5038824;28;20699;-68
2023/02/16 05:28:04;;;;;;;34.95;20.98;;;2.70;99.90;;;;;;5038135;28;20198;-67
2023/02/16 05:30:31;;;;;;;43.22;23.88;;;2.70;99.90;;;;;;5038461;28;20573;-68
2023/02/16 05:32:59;;;;;;;39.75;24.88;;;2.70;99.90;;;;;;5038015;28;20198;-68
2023/02/16 05:35:27;;;;;;;37.50;23.83;;;2.70;99.90;;;;;;5037433;28;20261;-69
2023/02/16 05:37:54;;;;;;;46.70;26.00;;;2.70;99.90;;;;;;5037966;28;20202;-69
2023/02/16 05:40:21;;;;;;;42.35;25.48;;;2.70;99.90;;;;;;5037561;28;20202;-67
2023/02/16 05:42:52;;;;;;;37.13;24.92;;;2.70;99.90;;;;;;5036286;28;20202;-67
2023/02/16 05:45:19;;;;;;;39.92;24.67;;;2.70;99.90;;;;;;5037278;28;20214;-66
2023/02/16 05:47:46;;;;;;;41.38;25.65;;;2.70;99.90;;;;;;5036402;28;20261;-68
2023/02/16 05:50:14;;;;;;;43.72;24.90;;;2.80;99.90;;;;;;5036542;28;20218;-67
2023/02/16 05:52:40;;;;;;;42.58;24.00;;;2.80;99.90;;;;;;5037558;28;20210;-68
2023/02/16 05:55:07;;;;;;;53.13;26.80;;;2.80;99.90;;;;;;5034307;28;20716;-69
2023/02/16 05:57:34;;;;;;;47.40;27.42;;;2.80;99.90;;;;;;5032725;28;20209;-67
2023/02/16 06:00:02;;;;;;;40.67;25.30;;;2.80;99.90;;;;;;5033099;28;20199;-67
2023/02/16 06:02:29;;;;;;;38.17;24.08;;;2.90;99.90;;;;;;5037642;28;20198;-67
2023/02/16 06:04:55;;;;;;;43.28;24.73;;;2.90;99.90;;;;;;5034029;28;20215;-68
2023/02/16 06:07:23;;;;;;;37.80;23.13;;;2.90;99.90;;;;;;5026360;28;20201;-69
2023/02/16 06:09:50;;;;;;;40.95;24.60;;;2.90;99.90;;;;;;5037048;28;20226;-67
2023/02/16 06:12:17;;;;;;;38.75;23.15;;;3.00;99.90;;;;;;5036874;28;20264;-66
2023/02/16 06:14:44;;;;;;;42.92;25.92;;;2.90;99.90;;;;;;5036180;28;20229;-67
2023/02/16 06:17:11;;;;;;;42.95;26.10;;;3.00;99.90;;;;;;5036411;28;20216;-67
2023/02/16 06:19:37;;;;;;;39.15;24.95;;;3.00;99.90;;;;;;5045236;28;20311;-68
2023/02/16 06:22:04;;;;;;;37.47;23.70;;;3.00;99.90;;;;;;5051837;28;20207;-67
2023/02/16 06:24:32;;;;;;;43.25;25.35;;;3.00;99.90;;;;;;5034438;28;20226;-68
2023/02/16 06:26:59;;;;;;;37.20;23.45;;;3.00;99.90;;;;;;5039841;28;20214;-68
2023/02/16 06:29:26;;;;;;;39.67;23.50;;;3.00;99.90;;;;;;5038900;28;20777;-69
2023/02/16 06:31:53;;;;;;;39.53;23.60;;;3.00;99.90;;;;;;5036243;28;20198;-68
2023/02/16 06:34:20;;;;;;;39.35;23.27;;;3.00;99.90;;;;;;5024348;28;20596;-69
2023/02/16 06:36:47;;;;;;;35.13;22.80;;;3.00;99.90;;;;;;5039317;28;20210;-68
2023/02/16 06:39:13;;;;;;;43.45;27.52;;;3.00;99.90;;;;;;5036803;28;20435;-69
2023/02/16 06:41:42;;;;;;;41.80;26.08;;;3.10;99.90;;;;;;5046497;28;20665;-68
2023/02/16 06:44:12;;;;;;;42.75;24.17;;;3.10;99.90;;;;;;5037270;28;20221;-67
2023/02/16 06:46:39;;;;;;;40.20;24.95;;;3.10;99.90;;;;;;5037686;28;20320;-68
2023/02/16 06:49:06;;;;;;;40.45;27.25;;;3.10;99.90;;;;;;5036261;28;20293;-68
2023/02/16 06:51:33;;;;;;;38.97;24.25;;;3.20;99.90;;;;;;5040367;28;20225;-69
2023/02/16 06:54:00;;;;;;;44.90;24.40;;;3.20;99.90;;;;;;5040514;28;20238;-69
2023/02/16 06:56:27;;;;;;;39.92;23.30;;;3.20;99.90;;;;;;5047301;28;20209;-68
2023/02/16 06:58:55;;;;;;;37.00;22.63;;;3.20;99.90;;;;;;5042831;28;20203;-69
2023/02/16 07:01:24;;;;;;;40.33;24.50;;;3.20;99.90;;;;;;5041483;28;20210;-69
2023/02/16 07:03:51;;;;;;;41.92;27.33;;;3.20;99.90;;;;;;5044366;28;20433;-69
2023/02/16 07:06:18;;;;;;;40.65;26.80;;;3.30;99.90;;;;;;5044099;28;20675;-68
2023/02/16 07:08:46;;;;;;;38.55;23.67;;;3.40;99.90;;;;;;5041252;28;20309;-67
2023/02/16 07:11:13;;;;;;;38.17;23.25;;;3.40;99.90;;;;;;5042738;28;20308;-68
2023/02/16 07:13:40;;;;;;;38.10;23.52;;;3.40;99.90;;;;;;5046114;28;20233;-66
2023/02/16 07:16:08;;;;;;;41.25;23.58;;;3.50;99.90;;;;;;5046310;28;20225;-68
2023/02/16 07:18:36;;;;;;;35.22;21.30;;;3.70;99.90;;;;;;5042148;28;20289;-69
2023/02/16 07:21:02;;;;;;;37.13;22.60;;;3.90;99.90;;;;;;5040547;28;20249;-67
2023/02/16 07:23:29;;;;;;;41.92;23.65;;;3.90;99.90;;;;;;5040452;28;20236;-67
2023/02/16 07:25:56;;;;;;;34.05;21.50;;;4.00;99.90;;;;;;5041499;28;20190;-68
2023/02/16 07:28:23;;;;;;;34.90;21.98;;;4.00;99.90;;;;;;5040631;28;20207;-69
2023/02/16 07:30:50;;;;;;;35.35;21.10;;;4.00;99.90;;;;;;5038883;28;20227;-69
2023/02/16 07:33:19;;;;;;;34.53;20.35;;;4.00;99.90;;;;;;5036965;28;20208;-68
2023/02/16 07:35:47;;;;;;;34.05;23.13;;;4.00;99.90;;;;;;5037152;28;20257;-68
2023/02/16 07:38:13;;;;;;;34.03;22.17;;;4.10;99.90;;;;;;5036772;28;20230;-69
2023/02/16 07:40:40;;;;;;;31.60;20.08;;;4.20;99.90;;;;;;5035289;28;20628;-67
2023/02/16 07:43:08;;;;;;;36.50;23.38;;;4.30;99.90;;;;;;5034851;28;20238;-71
2023/02/16 07:45:35;;;;;;;41.55;22.15;;;4.40;99.90;;;;;;5036068;28;20207;-65
2023/02/16 07:48:02;;;;;;;36.88;22.38;;;4.50;99.90;;;;;;5038915;28;20206;-66
2023/02/16 07:50:30;;;;;;;36.33;21.98;;;4.60;99.90;;;;;;5036149;28;20595;-67
2023/02/16 07:52:57;;;;;;;35.70;21.00;;;4.70;99.90;;;;;;5037702;28;20203;-67
2023/02/16 07:55:23;;;;;;;34.03;21.55;;;4.80;99.90;;;;;;5037460;28;20218;-64
2023/02/16 07:57:54;;;;;;;31.52;20.27;;;4.90;99.90;;;;;;5038160;28;20206;-65
2023/02/16 08:00:21;;;;;;;35.13;22.67;;;5.00;99.90;;;;;;5038011;28;20187;-65
2023/02/16 08:02:48;;;;;;;32.70;21.10;;;5.20;99.90;;;;;;5036298;28;20203;-67
2023/02/16 08:05:15;;;;;;;32.13;18.58;;;5.30;99.90;;;;;;5036563;28;20573;-68
2023/02/16 08:07:43;;;;;;;29.83;20.50;;;5.50;99.90;;;;;;5035541;28;20238;-68
2023/02/16 08:10:11;;;;;;;29.77;18.95;;;5.60;99.90;;;;;;5036022;28;20202;-68
2023/02/16 08:12:38;;;;;;;32.30;20.63;;;5.60;99.90;;;;;;5035800;28;20207;-67
2023/02/16 08:15:05;;;;;;;32.25;19.15;;;5.60;99.90;;;;;;5035561;28;20226;-72
2023/02/16 08:17:33;;;;;;;33.28;20.30;;;5.60;99.90;;;;;;5036104;28;20203;-68
2023/02/16 08:20:00;;;;;;;28.75;17.17;;;5.60;99.90;;;;;;5035729;28;20212;-69
2023/02/16 08:22:27;;;;;;;27.52;19.20;;;5.60;99.90;;;;;;5035810;28;20204;-71
2023/02/16 08:24:56;;;;;;;26.52;18.50;;;5.60;99.90;;;;;;5036181;28;20711;-69
2023/02/16 08:27:23;;;;;;;28.90;19.02;;;5.70;99.90;;;;;;5035859;28;20208;-71
2023/02/16 08:29:50;;;;;;;26.23;17.83;;;5.80;99.90;;;;;;5035155;28;20211;-69
2023/02/16 08:32:17;;;;;;;28.25;19.13;;;5.90;99.90;;;;;;5034546;28;20230;-69
2023/02/16 08:34:44;;;;;;;26.98;19.27;;;6.10;99.90;;;;;;5033692;28;20231;-68
2023/02/16 08:37:12;;;;;;;30.60;19.92;;;6.30;99.90;;;;;;5034238;28;20200;-70
2023/02/16 08:39:40;;;;;;;29.70;20.17;;;6.60;99.90;;;;;;5033855;28;20689;-66
2023/02/16 08:42:11;;;;;;;32.15;19.08;;;6.80;99.90;;;;;;5034340;28;20215;-65
2023/02/16 08:44:40;;;;;;;25.35;18.75;;;7.20;99.90;;;;;;5037322;28;20224;-68
2023/02/16 08:47:08;;;;;;;28.45;18.90;;;7.50;99.90;;;;;;5035516;28;20215;-66
2023/02/16 08:49:35;;;;;;;29.33;18.48;;;7.70;99.90;;;;;;5033431;28;20199;-70
2023/02/16 08:52:03;;;;;;;27.80;18.98;;;7.90;99.90;;;;;;5034092;28;20221;-68
2023/02/16 08:54:32;;;;;;;28.48;17.98;;;8.00;99.90;;;;;;5033197;28;20232;-69
2023/02/16 08:57:01;;;;;;;29.60;19.27;;;8.20;99.90;;;;;;5035747;28;20299;-67
2023/02/16 08:59:30;;;;;;;23.08;17.27;;;8.50;99.90;;;;;;5037031;28;20304;-70
2023/02/16 09:01:57;;;;;;;26.02;19.10;;;8.70;99.90;;;;;;5037378;28;20690;-68
2023/02/16 09:04:26;;;;;;;25.77;17.98;;;8.80;99.90;;;;;;5037197;28;20257;-68
2023/02/16 09:06:53;;;;;;;30.95;19.17;;;8.90;99.70;;;;;;5037449;28;20205;-70
2023/02/16 09:09:20;;;;;;;25.67;18.30;;;8.90;99.40;;;;;;5038394;28;20203;-70
2023/02/16 09:11:47;;;;;;;28.58;18.38;;;9.00;98.80;;;;;;5037544;28;20321;-69
2023/02/16 09:14:14;;;;;;;27.35;17.38;;;9.00;98.40;;;;;;5036634;28;20237;-67
2023/02/16 09:16:44;;;;;;;25.67;18.88;;;8.90;97.90;;;;;;5036657;28;20201;-67
2023/02/16 09:19:13;;;;;;;22.73;16.75;;;8.80;97.50;;;;;;5036624;28;20236;-69
2023/02/16 09:21:40;;;;;;;24.95;17.20;;;8.80;97.50;;;;;;5036832;28;20204;-68
2023/02/16 09:24:08;;;;;;;23.17;17.10;;;8.80;97.50;;;;;;5036666;28;20607;-68
2023/02/16 09:26:37;;;;;;;27.50;18.05;;;8.80;97.10;;;;;;5038210;28;20223;-67
2023/02/16 09:29:04;;;;;;;29.55;19.45;;;8.80;96.70;;;;;;5039813;28;20235;-68
2023/02/16 09:31:33;;;;;;;21.35;16.88;;;8.80;96.60;;;;;;5038856;28;20230;-67
2023/02/16 09:34:03;;;;;;;24.67;18.23;;;8.80;96.20;;;;;;5039200;28;20237;-68
2023/02/16 09:36:31;;;;;;;25.02;17.08;;;8.90;96.00;;;;;;5037613;28;20214;-68
2023/02/16 09:38:58;;;;;;;23.02;16.15;;;8.90;95.50;;;;;;5037114;28;20692;-65
2023/02/16 09:41:36;;;;;;;29.20;17.85;;;9.00;95.00;;;;;;5036351;28;20202;-66
2023/02/16 09:44:10;;;;;;;30.63;17.58;;;8.90;94.80;;;;;;5036191;28;20223;-66
2023/02/16 09:46:38;;;;;;;24.70;17.50;;;9.00;94.50;;;;;;5036222;28;20635;-67
2023/02/16 09:49:09;;;;;;;25.05;17.70;;;9.00;94.30;;;;;;5037512;28;20205;-71
2023/02/16 09:51:39;;;;;;;25.88;17.17;;;9.00;94.10;;;;;;5037147;28;20258;-69
2023/02/16 09:54:19;;;;;;;25.88;18.02;;;9.10;93.90;;;;;;5039357;28;20277;-73
2023/02/16 09:56:52;;;;;;;29.27;18.90;;;9.10;93.50;;;;;;5036238;28;20196;-69
2023/02/16 09:59:33;;;;;;;26.45;18.38;;;9.10;93.30;;;;;;5036216;28;20219;-69
2023/02/16 10:02:19;;;;;;;27.48;18.55;;;9.10;92.90;;;;;;5036646;28;20183;-75
2023/02/16 10:05:02;;;;;;;23.53;17.33;;;9.10;92.80;;;;;;5039340;28;20232;-76
2023/02/16 10:07:41;;;;;;;26.85;18.15;;;9.10;92.60;;;;;;5037226;28;20438;-68
2023/02/16 10:10:13;;;;;;;29.02;18.55;;;9.10;92.30;;;;;;5037193;28;20193;-69
2023/02/16 10:12:46;;;;;;;27.73;17.85;;;9.20;92.10;;;;;;5036679;28;20209;-71
2023/02/16 10:15:18;;;;;;;23.37;16.87;;;9.20;91.70;;;;;;5036874;28;20593;-70
2023/02/16 10:17:48;;;;;;;26.90;18.58;;;9.30;91.50;;;;;;5035761;28;20466;-71
2023/02/16 10:20:22;;;;;;;24.80;16.15;;;9.30;91.20;;;;;;5037683;28;20192;-71
2023/02/16 10:22:52;;;;;;;25.67;17.05;;;9.30;91.20;;;;;;5035974;28;20194;-71
2023/02/16 10:25:25;;;;;;;27.23;18.40;;;9.30;90.80;;;;;;5049088;22;20314;-63
2023/02/16 10:28:01;;;;;;;25.38;18.00;;;9.30;90.60;;;;;;5034731;28;20195;-64
2023/02/16 10:30:31;;;;;;;27.23;17.65;;;9.40;90.60;;;;;;5034169;28;20192;-63
2023/02/16 10:33:04;;;;;;;27.50;17.25;;;9.40;90.60;;;;;;5033951;28;20239;-63
2023/02/16 10:35:45;;;;;;;25.08;18.70;;;9.50;90.40;;;;;;5034566;28;20676;-63
2023/02/16 10:38:19;;;;;;;26.65;19.15;;;9.70;90.20;;;;;;5034905;28;20216;-64
2023/02/16 10:40:52;;;;;;;24.00;17.07;;;9.80;89.40;;;;;;5035549;28;20191;-61
2023/02/16 10:43:25;;;;;;;23.73;17.47;;;9.80;88.40;;;;;;5035345;28;20437;-64
2023/02/16 10:45:53;;;;;;;25.57;17.50;;;9.80;87.30;;;;;;5034199;28;20581;-63
2023/02/16 10:48:21;;;;;;;23.20;15.83;;;9.80;86.80;;;;;;5036095;28;20473;-64
2023/02/16 10:50:57;;;;;;;25.35;17.58;;;9.80;85.10;;;;;;5035069;28;20447;-63
2023/02/16 10:53:35;;;;;;;22.43;16.73;;;9.80;85.00;;;;;;5052076;28;20197;-61
2023/02/16 10:56:12;;;;;;;29.53;18.47;;;9.80;84.20;;;;;;5034936;28;20462;-63
2023/02/16 10:58:40;;;;;;;24.73;17.10;;;9.90;83.20;;;;;;5034779;28;20436;-63
2023/02/16 11:01:13;;;;;;;25.00;16.37;;;9.90;83.00;;;;;;5034387;28;20549;-62
2023/02/16 11:03:45;;;;;;;26.40;17.20;;;10.00;81.40;;;;;;5034926;28;20431;-62
2023/02/16 11:06:22;;;;;;;22.93;17.60;;;10.00;79.80;;;;;;5034465;28;20440;-63
2023/02/16 11:08:50;;;;;;;21.70;16.53;;;9.90;80.70;;;;;;5035025;28;20434;-63
2023/02/16 11:11:21;;;;;;;26.63;16.63;;;9.90;80.00;;;;;;5034183;28;20580;-63
2023/02/16 11:13:49;;;;;;;23.10;17.03;;;9.80;80.80;;;;;;5033918;28;20806;-63
2023/02/16 11:16:21;;;;;;;24.60;18.73;;;9.80;80.30;;;;;;5033886;28;20975;-64
2023/02/16 11:18:56;;;;;;;31.13;18.77;;;9.80;80.20;;;;;;5033108;28;20475;-63
2023/02/16 11:21:43;;;;;;;28.15;17.58;;;9.80;79.50;;;;;;5034275;28;20444;-63
2023/02/16 11:24:13;;;;;;;22.87;15.90;;;9.80;79.60;;;;;;5034081;28;20323;-63
2023/02/16 11:26:40;;;;;;;24.73;19.20;;;9.70;79.30;;;;;;5033818;28;20446;-62
2023/02/16 11:29:18;;;;;;;22.97;16.53;;;9.70;78.90;;;;;;5033773;28;20467;-64
2023/02/16 11:31:45;;;;;;;24.65;17.83;;;9.70;80.00;;;;;;5034139;28;20483;-63
2023/02/16 11:34:20;;;;;;;24.60;16.10;;;9.70;79.50;;;;;;5033716;28;20225;-63
2023/02/16 11:36:48;;;;;;;27.37;18.20;;;9.70;79.50;;;;;;5033677;28;20192;-62
2023/02/16 11:39:20;;;;;;;25.93;17.07;;;9.90;79.40;;;;;;5033552;28;20555;-63
2023/02/16 11:41:51;;;;;;;24.80;18.02;;;9.90;79.50;;;;;;5034007;28;20459;-63
2023/02/16 11:44:26;;;;;;;24.40;17.17;;;10.00;77.70;;;;;;5033911;28;20229;-62
2023/02/16 11:46:56;;;;;;;25.03;17.00;;;10.20;77.40;;;;;;5034043;28;20184;-62
2023/02/16 11:49:30;;;;;;;30.30;18.40;;;10.40;76.70;;;;;;5034727;28;20456;-63
2023/02/16 11:51:59;;;;;;;21.80;16.00;;;10.50;75.90;;;;;;5034775;28;20466;-61
2023/02/16 11:54:27;;;;;;;27.07;16.73;;;10.50;75.40;;;;;;5035045;28;20558;-63
2023/02/16 11:57:13;;;;;;;23.10;16.50;;;10.50;75.10;;;;;;5035586;28;20943;-63
2023/02/16 11:59:40;;;;;;;21.23;16.60;;;10.50;74.70;;;;;;5034471;28;20485;-63
2023/02/16 12:02:40;;;;;;;24.40;17.17;;;10.40;74.60;;;;;;5034474;28;20793;-64
2023/02/16 12:05:24;;;;;;;22.77;15.83;;;10.30;74.60;;;;;;5033378;28;20886;-65
2023/02/16 12:08:18;;;;;;;21.57;16.43;;;10.20;74.70;;;;;;5033322;28;20474;-63
2023/02/16 12:10:58;;;;;;;22.20;17.00;;;10.20;74.90;;;;;;5032639;28;20439;-64
2023/02/16 12:13:32;;;;;;;23.83;16.93;;;10.10;75.10;;;;;;5033476;28;20974;-64
2023/02/16 12:16:05;;;;;;;23.37;18.13;;;10.10;75.50;;;;;;5033483;28;20445;-63
2023/02/16 12:18:43;;;;;;;23.33;16.77;;;10.00;75.40;;;;;;5033261;28;20974;-65
2023/02/16 12:21:21;;;;;;;22.87;17.13;;;10.00;75.30;;;;;;5033703;28;20447;-64
2023/02/16 12:23:57;;;;;;;22.60;16.50;;;10.00;75.30;;;;;;5033628;28;20581;-64
2023/02/16 12:26:37;;;;;;;20.60;15.47;;;10.00;75.10;;;;;;5033646;28;20474;-63
2023/02/16 12:29:20;;;;;;;20.33;15.17;;;9.90;76.80;;;;;;5050032;28;20436;-64
2023/02/16 12:32:06;;;;;;;22.77;16.70;;;9.90;76.30;;;;;;5036991;28;20473;-64
2023/02/16 12:34:44;;;;;;;23.10;16.17;;;9.90;76.20;;;;;;5037043;28;20220;-65
2023/02/16 12:37:21;;;;;;;23.53;17.90;;;9.90;76.30;;;;;;5037550;28;20426;-64
2023/02/16 12:39:58;;;;;;;20.30;15.87;;;9.90;76.40;;;;;;5037176;28;20431;-65
2023/02/16 12:42:45;;;;;;;21.17;15.40;;;9.90;76.40;;;;;;5037726;28;20424;-64
2023/02/16 12:45:17;;;;;;;25.30;16.53;;;9.90;76.40;;;;;;5038056;28;20856;-64
2023/02/16 12:47:50;;;;;;;20.65;15.20;;;10.00;75.40;;;;;;5039260;28;20542;-64
2023/02/16 12:50:21;;;;;;;20.27;15.25;;;10.00;75.20;;;;;;5040330;28;20191;-65
2023/02/16 12:52:54;;;;;;;23.65;16.13;;;10.00;74.80;;;;;;5039530;28;20295;-66
2023/02/16 12:55:27;;;;;;;23.55;16.08;;;10.10;75.00;;;;;;5038926;28;20297;-64
2023/02/16 12:58:00;;;;;;;18.90;14.23;;;10.10;74.80;;;;;;5039026;28;20224;-63
2023/02/16 13:00:39;;;;;;;26.37;15.20;;;10.10;74.70;;;;;;5039752;28;20196;-64
2023/02/16 13:03:16;;;;;;;20.90;15.98;;;10.20;74.60;;;;;;5038150;28;20922;-62
2023/02/16 13:05:47;;;;;;;23.07;15.37;;;10.20;74.50;;;;;;5038648;28;20234;-63
2023/02/16 13:08:22;;;;;;;21.93;15.57;;;10.20;74.50;;;;;;5039227;28;20430;-62
2023/02/16 13:10:57;;;;;;;20.87;14.50;;;10.20;74.70;;;;;;5038406;28;20429;-65
2023/02/16 13:13:26;;;;;;;20.40;15.20;;;10.40;74.70;;;;;;5037265;28;20465;-63
2023/02/16 13:16:01;;;;;;;20.33;14.97;;;10.50;74.10;;;;;;5036834;28;20480;-63
2023/02/16 13:18:31;;;;;;;20.00;14.00;;;10.50;73.70;;;;;;5036893;28;20946;-63
2023/02/16 13:21:02;;;;;;;24.50;15.90;;;10.40;73.50;;;;;;5036499;28;20450;-64
2023/02/16 13:23:46;;;;;;;21.53;15.17;;;10.50;73.70;;;;;;5037021;28;20427;-62
2023/02/16 13:26:37;;;;;;;21.00;15.00;;;10.50;73.60;;;;;;5037289;28;20930;-65
2023/02/16 13:29:27;;;;;;;20.40;14.00;;;10.60;73.50;;;;;;5037305;28;20447;-62
2023/02/16 13:32:05;;;;;;;20.63;15.47;;;10.60;72.80;;;;;;5037773;28;20437;-64
2023/02/16 13:34:57;;;;;;;19.53;15.00;;;10.50;72.80;;;;;;5036629;28;20549;-61